sensor_id;sensor_type;location;lat;lon;timestamp;P1;durP1;ratioP1;P2;durP2;ratioP2
69323;SDS011;56470;47.350;8.718;2022-11-23T00:02:22;2.10;;;0.97;;
69323;SDS011;56470;47.350;8.718;2022-11-23T00:04:47;1.80;;;1.02;;
69323;SDS011;56470;47.350;8.718;2022-11-23T00:07:12;2.80;;;0.90;;
69323;SDS011;56470;47.350;8.718;2022-11-23T00:09:38;1.30;;;0.70;;
69323;SDS011;56470;47.350;8.718;2022-11-23T00:12:03;2.00;;;1.20;;
69323;SDS011;56470;47.350;8.718;2022-11-23T00:14:29;3.40;;;1.13;;
69323;SDS011;56470;47.350;8.718;2022-11-23T00:16:54;3.53;;;1.20;;
69323;SDS011;56470;47.350;8.718;2022-11-23T00:19:19;2.10;;;1.10;;
69323;SDS011;56470;47.350;8.718;2022-11-23T00:21:45;2.53;;;1.57;;
69323;SDS011;56470;47.350;8.718;2022-11-23T00:24:13;2.80;;;1.53;;
69323;SDS011;56470;47.350;8.718;2022-11-23T00:26:38;1.58;;;1.13;;
69323;SDS011;56470;47.350;8.718;2022-11-23T00:29:04;2.57;;;1.17;;
69323;SDS011;56470;47.350;8.718;2022-11-23T00:31:31;2.90;;;1.58;;
69323;SDS011;56470;47.350;8.718;2022-11-23T00:33:57;2.53;;;1.63;;
69323;SDS011;56470;47.350;8.718;2022-11-23T00:36:23;2.77;;;1.10;;
69323;SDS011;56470;47.350;8.718;2022-11-23T00:38:50;1.52;;;1.05;;
69323;SDS011;56470;47.350;8.718;2022-11-23T00:41:19;4.63;;;1.38;;
69323;SDS011;56470;47.350;8.718;2022-11-23T00:43:46;1.40;;;1.00;;
69323;SDS011;56470;47.350;8.718;2022-11-23T00:48:42;2.45;;;1.30;;
69323;SDS011;56470;47.350;8.718;2022-11-23T00:51:09;1.70;;;1.17;;
69323;SDS011;56470;47.350;8.718;2022-11-23T00:53:35;2.20;;;1.70;;
69323;SDS011;56470;47.350;8.718;2022-11-23T00:56:01;2.50;;;1.20;;
69323;SDS011;56470;47.350;8.718;2022-11-23T00:58:26;1.50;;;0.90;;
69323;SDS011;56470;47.350;8.718;2022-11-23T01:00:59;1.70;;;1.10;;
69323;SDS011;56470;47.350;8.718;2022-11-23T01:03:25;2.17;;;1.05;;
69323;SDS011;56470;47.350;8.718;2022-11-23T01:05:50;2.10;;;0.93;;
69323;SDS011;56470;47.350;8.718;2022-11-23T01:08:16;2.85;;;1.00;;
69323;SDS011;56470;47.350;8.718;2022-11-23T01:10:41;2.13;;;1.53;;
69323;SDS011;56470;47.350;8.718;2022-11-23T01:13:06;3.13;;;1.40;;
69323;SDS011;56470;47.350;8.718;2022-11-23T01:15:31;1.97;;;1.00;;
69323;SDS011;56470;47.350;8.718;2022-11-23T01:17:57;2.40;;;0.80;;
69323;SDS011;56470;47.350;8.718;2022-11-23T01:20:22;1.60;;;1.10;;
69323;SDS011;56470;47.350;8.718;2022-11-23T01:22:49;1.97;;;0.80;;
69323;SDS011;56470;47.350;8.718;2022-11-23T01:25:16;2.27;;;1.60;;
69323;SDS011;56470;47.350;8.718;2022-11-23T01:27:41;4.23;;;1.00;;
69323;SDS011;56470;47.350;8.718;2022-11-23T01:30:06;3.05;;;0.93;;
69323;SDS011;56470;47.350;8.718;2022-11-23T01:32:32;1.83;;;1.33;;
69323;SDS011;56470;47.350;8.718;2022-11-23T01:34:58;3.43;;;1.20;;
69323;SDS011;56470;47.350;8.718;2022-11-23T01:37:23;2.17;;;1.08;;
69323;SDS011;56470;47.350;8.718;2022-11-23T01:39:48;3.00;;;1.10;;
69323;SDS011;56470;47.350;8.718;2022-11-23T01:42:14;3.37;;;1.10;;
69323;SDS011;56470;47.350;8.718;2022-11-23T01:44:42;4.00;;;1.00;;
69323;SDS011;56470;47.350;8.718;2022-11-23T01:47:08;2.25;;;1.27;;
69323;SDS011;56470;47.350;8.718;2022-11-23T01:49:45;2.63;;;1.50;;
69323;SDS011;56470;47.350;8.718;2022-11-23T01:52:15;3.20;;;1.10;;
69323;SDS011;56470;47.350;8.718;2022-11-23T01:54:45;2.17;;;1.35;;
69323;SDS011;56470;47.350;8.718;2022-11-23T01:57:24;5.13;;;0.70;;
69323;SDS011;56470;47.350;8.718;2022-11-23T01:59:55;2.72;;;1.20;;
69323;SDS011;56470;47.350;8.718;2022-11-23T02:02:21;2.03;;;1.25;;
69323;SDS011;56470;47.350;8.718;2022-11-23T02:04:47;2.40;;;1.53;;
69323;SDS011;56470;47.350;8.718;2022-11-23T02:07:13;1.50;;;1.20;;
69323;SDS011;56470;47.350;8.718;2022-11-23T02:09:40;2.03;;;1.10;;
69323;SDS011;56470;47.350;8.718;2022-11-23T02:12:10;5.00;;;1.00;;
69323;SDS011;56470;47.350;8.718;2022-11-23T02:14:36;2.70;;;1.05;;
69323;SDS011;56470;47.350;8.718;2022-11-23T02:17:02;1.30;;;0.90;;
69323;SDS011;56470;47.350;8.718;2022-11-23T02:19:36;2.83;;;1.10;;
69323;SDS011;56470;47.350;8.718;2022-11-23T02:22:05;2.55;;;1.42;;
69323;SDS011;56470;47.350;8.718;2022-11-23T02:24:38;2.90;;;1.20;;
69323;SDS011;56470;47.350;8.718;2022-11-23T02:27:09;2.17;;;1.00;;
69323;SDS011;56470;47.350;8.718;2022-11-23T02:29:34;2.00;;;1.27;;
69323;SDS011;56470;47.350;8.718;2022-11-23T02:32:00;2.53;;;1.92;;
69323;SDS011;56470;47.350;8.718;2022-11-23T02:34:25;3.67;;;1.03;;
69323;SDS011;56470;47.350;8.718;2022-11-23T02:36:54;2.50;;;1.10;;
69323;SDS011;56470;47.350;8.718;2022-11-23T02:41:58;1.98;;;1.20;;
69323;SDS011;56470;47.350;8.718;2022-11-23T02:44:28;1.90;;;1.13;;
69323;SDS011;56470;47.350;8.718;2022-11-23T02:47:04;2.53;;;1.23;;
69323;SDS011;56470;47.350;8.718;2022-11-23T02:49:30;2.03;;;1.30;;
69323;SDS011;56470;47.350;8.718;2022-11-23T02:51:55;1.93;;;0.97;;
69323;SDS011;56470;47.350;8.718;2022-11-23T02:54:20;2.03;;;0.97;;
69323;SDS011;56470;47.350;8.718;2022-11-23T02:56:46;2.03;;;1.05;;
69323;SDS011;56470;47.350;8.718;2022-11-23T02:59:11;2.40;;;1.00;;
69323;SDS011;56470;47.350;8.718;2022-11-23T03:01:36;2.13;;;1.03;;
69323;SDS011;56470;47.350;8.718;2022-11-23T03:04:04;1.50;;;1.10;;
69323;SDS011;56470;47.350;8.718;2022-11-23T03:06:29;2.27;;;1.60;;
69323;SDS011;56470;47.350;8.718;2022-11-23T03:08:54;2.47;;;1.50;;
69323;SDS011;56470;47.350;8.718;2022-11-23T03:11:20;2.27;;;1.27;;
69323;SDS011;56470;47.350;8.718;2022-11-23T03:13:45;2.38;;;1.30;;
69323;SDS011;56470;47.350;8.718;2022-11-23T03:16:11;2.30;;;1.50;;
69323;SDS011;56470;47.350;8.718;2022-11-23T03:18:36;1.53;;;0.90;;
69323;SDS011;56470;47.350;8.718;2022-11-23T03:21:02;2.07;;;1.23;;
69323;SDS011;56470;47.350;8.718;2022-11-23T03:23:29;2.40;;;1.30;;
69323;SDS011;56470;47.350;8.718;2022-11-23T03:25:55;2.25;;;1.50;;
69323;SDS011;56470;47.350;8.718;2022-11-23T03:28:23;1.85;;;1.38;;
69323;SDS011;56470;47.350;8.718;2022-11-23T03:30:49;4.23;;;1.30;;
69323;SDS011;56470;47.350;8.718;2022-11-23T03:33:15;3.23;;;1.60;;
69323;SDS011;56470;47.350;8.718;2022-11-23T03:35:40;2.47;;;0.82;;
69323;SDS011;56470;47.350;8.718;2022-11-23T03:38:06;2.27;;;1.17;;
69323;SDS011;56470;47.350;8.718;2022-11-23T03:40:31;3.65;;;0.93;;
69323;SDS011;56470;47.350;8.718;2022-11-23T03:42:56;2.83;;;1.37;;
69323;SDS011;56470;47.350;8.718;2022-11-23T03:45:22;4.43;;;1.33;;
69323;SDS011;56470;47.350;8.718;2022-11-23T03:47:47;3.07;;;1.40;;
69323;SDS011;56470;47.350;8.718;2022-11-23T03:50:12;2.77;;;0.77;;
69323;SDS011;56470;47.350;8.718;2022-11-23T03:52:38;3.20;;;1.10;;
69323;SDS011;56470;47.350;8.718;2022-11-23T03:55:03;2.75;;;1.27;;
69323;SDS011;56470;47.350;8.718;2022-11-23T03:57:29;1.30;;;0.80;;
69323;SDS011;56470;47.350;8.718;2022-11-23T03:59:54;2.50;;;1.40;;
69323;SDS011;56470;47.350;8.718;2022-11-23T04:02:20;1.75;;;1.08;;
69323;SDS011;56470;47.350;8.718;2022-11-23T04:04:45;2.00;;;1.30;;
69323;SDS011;56470;47.350;8.718;2022-11-23T04:07:10;2.07;;;1.07;;
69323;SDS011;56470;47.350;8.718;2022-11-23T04:09:36;2.63;;;1.00;;
69323;SDS011;56470;47.350;8.718;2022-11-23T04:12:01;3.40;;;1.27;;
69323;SDS011;56470;47.350;8.718;2022-11-23T04:14:26;1.70;;;1.00;;
69323;SDS011;56470;47.350;8.718;2022-11-23T04:16:51;1.83;;;1.27;;
69323;SDS011;56470;47.350;8.718;2022-11-23T04:19:17;3.97;;;1.40;;
69323;SDS011;56470;47.350;8.718;2022-11-23T04:21:42;3.83;;;1.77;;
69323;SDS011;56470;47.350;8.718;2022-11-23T04:24:07;2.47;;;1.33;;
69323;SDS011;56470;47.350;8.718;2022-11-23T04:26:33;1.97;;;1.07;;
69323;SDS011;56470;47.350;8.718;2022-11-23T04:28:58;2.33;;;1.17;;
69323;SDS011;56470;47.350;8.718;2022-11-23T04:31:23;6.20;;;2.00;;
69323;SDS011;56470;47.350;8.718;2022-11-23T04:33:49;2.20;;;1.17;;
69323;SDS011;56470;47.350;8.718;2022-11-23T04:36:14;2.27;;;1.63;;
69323;SDS011;56470;47.350;8.718;2022-11-23T04:38:39;1.70;;;0.80;;
69323;SDS011;56470;47.350;8.718;2022-11-23T04:41:05;2.30;;;1.40;;
69323;SDS011;56470;47.350;8.718;2022-11-23T04:43:30;1.93;;;1.30;;
69323;SDS011;56470;47.350;8.718;2022-11-23T04:45:56;3.45;;;1.65;;
69323;SDS011;56470;47.350;8.718;2022-11-23T04:48:21;1.93;;;1.30;;
69323;SDS011;56470;47.350;8.718;2022-11-23T04:50:47;1.97;;;0.90;;
69323;SDS011;56470;47.350;8.718;2022-11-23T04:53:12;2.13;;;1.30;;
69323;SDS011;56470;47.350;8.718;2022-11-23T04:55:38;1.57;;;0.90;;
69323;SDS011;56470;47.350;8.718;2022-11-23T04:58:03;3.47;;;1.40;;
69323;SDS011;56470;47.350;8.718;2022-11-23T05:00:28;2.87;;;1.63;;
69323;SDS011;56470;47.350;8.718;2022-11-23T05:02:54;2.25;;;1.17;;
69323;SDS011;56470;47.350;8.718;2022-11-23T05:05:22;3.20;;;1.52;;
69323;SDS011;56470;47.350;8.718;2022-11-23T05:07:47;2.87;;;1.40;;
69323;SDS011;56470;47.350;8.718;2022-11-23T05:10:13;2.43;;;1.47;;
69323;SDS011;56470;47.350;8.718;2022-11-23T05:12:38;2.67;;;1.53;;
69323;SDS011;56470;47.350;8.718;2022-11-23T05:15:04;2.17;;;1.40;;
69323;SDS011;56470;47.350;8.718;2022-11-23T05:17:30;2.55;;;1.40;;
69323;SDS011;56470;47.350;8.718;2022-11-23T05:19:55;2.17;;;1.60;;
69323;SDS011;56470;47.350;8.718;2022-11-23T05:22:20;2.28;;;1.25;;
69323;SDS011;56470;47.350;8.718;2022-11-23T05:24:46;3.33;;;2.07;;
69323;SDS011;56470;47.350;8.718;2022-11-23T05:27:11;2.83;;;1.47;;
69323;SDS011;56470;47.350;8.718;2022-11-23T05:29:37;2.60;;;1.47;;
69323;SDS011;56470;47.350;8.718;2022-11-23T05:32:03;3.70;;;1.42;;
69323;SDS011;56470;47.350;8.718;2022-11-23T05:34:28;3.40;;;2.03;;
69323;SDS011;56470;47.350;8.718;2022-11-23T05:36:53;3.83;;;2.00;;
69323;SDS011;56470;47.350;8.718;2022-11-23T05:39:19;5.37;;;1.67;;
69323;SDS011;56470;47.350;8.718;2022-11-23T05:41:44;4.33;;;1.93;;
69323;SDS011;56470;47.350;8.718;2022-11-23T05:44:09;4.40;;;2.20;;
69323;SDS011;56470;47.350;8.718;2022-11-23T05:46:35;3.47;;;1.83;;
69323;SDS011;56470;47.350;8.718;2022-11-23T05:49:00;3.25;;;1.58;;
69323;SDS011;56470;47.350;8.718;2022-11-23T05:51:25;4.37;;;1.50;;
69323;SDS011;56470;47.350;8.718;2022-11-23T05:53:51;2.43;;;1.47;;
69323;SDS011;56470;47.350;8.718;2022-11-23T05:56:16;4.50;;;1.70;;
69323;SDS011;56470;47.350;8.718;2022-11-23T05:58:41;3.60;;;1.43;;
69323;SDS011;56470;47.350;8.718;2022-11-23T06:01:09;3.85;;;2.00;;
69323;SDS011;56470;47.350;8.718;2022-11-23T06:03:34;2.43;;;1.70;;
69323;SDS011;56470;47.350;8.718;2022-11-23T06:05:59;2.87;;;1.53;;
69323;SDS011;56470;47.350;8.718;2022-11-23T06:08:25;3.27;;;1.47;;
69323;SDS011;56470;47.350;8.718;2022-11-23T06:10:50;4.30;;;1.57;;
69323;SDS011;56470;47.350;8.718;2022-11-23T06:13:15;4.97;;;1.95;;
69323;SDS011;56470;47.350;8.718;2022-11-23T06:15:41;3.30;;;1.80;;
69323;SDS011;56470;47.350;8.718;2022-11-23T06:18:06;3.37;;;1.70;;
69323;SDS011;56470;47.350;8.718;2022-11-23T06:20:32;2.65;;;1.63;;
69323;SDS011;56470;47.350;8.718;2022-11-23T06:22:58;6.83;;;2.03;;
69323;SDS011;56470;47.350;8.718;2022-11-23T06:25:23;4.07;;;2.07;;
69323;SDS011;56470;47.350;8.718;2022-11-23T06:27:52;4.27;;;1.80;;
69323;SDS011;56470;47.350;8.718;2022-11-23T06:30:21;2.80;;;1.77;;
69323;SDS011;56470;47.350;8.718;2022-11-23T06:32:47;3.67;;;1.33;;
69323;SDS011;56470;47.350;8.718;2022-11-23T06:35:12;3.03;;;1.50;;
69323;SDS011;56470;47.350;8.718;2022-11-23T06:37:37;4.03;;;1.80;;
69323;SDS011;56470;47.350;8.718;2022-11-23T06:40:03;3.67;;;1.70;;
69323;SDS011;56470;47.350;8.718;2022-11-23T06:42:28;3.63;;;2.05;;
69323;SDS011;56470;47.350;8.718;2022-11-23T06:44:54;5.17;;;2.60;;
69323;SDS011;56470;47.350;8.718;2022-11-23T06:47:19;5.27;;;3.17;;
69323;SDS011;56470;47.350;8.718;2022-11-23T06:49:44;5.33;;;2.57;;
69323;SDS011;56470;47.350;8.718;2022-11-23T06:52:10;3.43;;;2.07;;
69323;SDS011;56470;47.350;8.718;2022-11-23T06:54:35;3.10;;;1.85;;
69323;SDS011;56470;47.350;8.718;2022-11-23T06:57:01;4.17;;;1.73;;
69323;SDS011;56470;47.350;8.718;2022-11-23T06:59:26;3.70;;;1.90;;
69323;SDS011;56470;47.350;8.718;2022-11-23T07:01:51;4.37;;;2.30;;
69323;SDS011;56470;47.350;8.718;2022-11-23T07:04:16;5.70;;;2.00;;
69323;SDS011;56470;47.350;8.718;2022-11-23T07:06:42;4.83;;;2.37;;
69323;SDS011;56470;47.350;8.718;2022-11-23T07:09:07;3.83;;;1.93;;
69323;SDS011;56470;47.350;8.718;2022-11-23T07:11:33;3.55;;;1.88;;
69323;SDS011;56470;47.350;8.718;2022-11-23T07:13:58;6.43;;;2.60;;
69323;SDS011;56470;47.350;8.718;2022-11-23T07:16:24;5.17;;;2.50;;
69323;SDS011;56470;47.350;8.718;2022-11-23T07:18:50;5.15;;;2.20;;
69323;SDS011;56470;47.350;8.718;2022-11-23T07:21:15;4.83;;;2.47;;
69323;SDS011;56470;47.350;8.718;2022-11-23T07:23:40;7.17;;;2.87;;
69323;SDS011;56470;47.350;8.718;2022-11-23T07:26:06;5.27;;;2.73;;
69323;SDS011;56470;47.350;8.718;2022-11-23T07:28:33;9.13;;;2.97;;
69323;SDS011;56470;47.350;8.718;2022-11-23T07:30:58;7.13;;;2.63;;
69323;SDS011;56470;47.350;8.718;2022-11-23T07:33:23;4.40;;;2.53;;
69323;SDS011;56470;47.350;8.718;2022-11-23T07:35:49;4.43;;;1.90;;
69323;SDS011;56470;47.350;8.718;2022-11-23T07:38:14;6.13;;;2.20;;
69323;SDS011;56470;47.350;8.718;2022-11-23T07:40:40;4.27;;;2.50;;
69323;SDS011;56470;47.350;8.718;2022-11-23T07:43:05;5.07;;;2.37;;
69323;SDS011;56470;47.350;8.718;2022-11-23T07:45:31;4.43;;;2.60;;
69323;SDS011;56470;47.350;8.718;2022-11-23T07:47:58;6.53;;;2.38;;
69323;SDS011;56470;47.350;8.718;2022-11-23T07:50:28;5.93;;;3.20;;
69323;SDS011;56470;47.350;8.718;2022-11-23T07:52:54;9.38;;;4.03;;
69323;SDS011;56470;47.350;8.718;2022-11-23T07:55:20;7.43;;;3.92;;
69323;SDS011;56470;47.350;8.718;2022-11-23T07:57:45;9.33;;;4.40;;
69323;SDS011;56470;47.350;8.718;2022-11-23T08:00:11;5.43;;;2.83;;
69323;SDS011;56470;47.350;8.718;2022-11-23T08:02:37;4.80;;;2.00;;
69323;SDS011;56470;47.350;8.718;2022-11-23T08:05:03;3.60;;;1.63;;
69323;SDS011;56470;47.350;8.718;2022-11-23T08:07:28;3.77;;;2.37;;
69323;SDS011;56470;47.350;8.718;2022-11-23T08:09:53;4.17;;;1.87;;
69323;SDS011;56470;47.350;8.718;2022-11-23T08:12:19;4.05;;;2.17;;
69323;SDS011;56470;47.350;8.718;2022-11-23T08:14:44;2.30;;;1.33;;
69323;SDS011;56470;47.350;8.718;2022-11-23T08:17:09;5.77;;;1.77;;
69323;SDS011;56470;47.350;8.718;2022-11-23T08:19:35;4.77;;;2.20;;
69323;SDS011;56470;47.350;8.718;2022-11-23T08:22:00;3.17;;;1.40;;
69323;SDS011;56470;47.350;8.718;2022-11-23T08:24:26;3.37;;;1.57;;
69323;SDS011;56470;47.350;8.718;2022-11-23T08:26:51;3.22;;;1.50;;
69323;SDS011;56470;47.350;8.718;2022-11-23T08:29:16;4.07;;;1.37;;
69323;SDS011;56470;47.350;8.718;2022-11-23T08:31:42;4.33;;;1.70;;
69323;SDS011;56470;47.350;8.718;2022-11-23T08:34:07;3.20;;;1.60;;
69323;SDS011;56470;47.350;8.718;2022-11-23T08:36:33;3.17;;;1.65;;
69323;SDS011;56470;47.350;8.718;2022-11-23T08:38:58;5.10;;;2.17;;
69323;SDS011;56470;47.350;8.718;2022-11-23T08:41:23;2.63;;;1.70;;
69323;SDS011;56470;47.350;8.718;2022-11-23T08:43:49;3.37;;;1.90;;
69323;SDS011;56470;47.350;8.718;2022-11-23T08:46:15;3.10;;;1.73;;
69323;SDS011;56470;47.350;8.718;2022-11-23T08:48:41;2.55;;;1.42;;
69323;SDS011;56470;47.350;8.718;2022-11-23T08:51:07;2.27;;;0.90;;
69323;SDS011;56470;47.350;8.718;2022-11-23T08:53:32;4.35;;;1.75;;
69323;SDS011;56470;47.350;8.718;2022-11-23T08:56:01;2.10;;;1.40;;
69323;SDS011;56470;47.350;8.718;2022-11-23T08:58:28;3.42;;;1.90;;
69323;SDS011;56470;47.350;8.718;2022-11-23T09:00:53;4.40;;;2.30;;
69323;SDS011;56470;47.350;8.718;2022-11-23T09:03:18;4.07;;;1.30;;
69323;SDS011;56470;47.350;8.718;2022-11-23T09:05:44;2.57;;;1.40;;
69323;SDS011;56470;47.350;8.718;2022-11-23T09:08:09;2.70;;;1.30;;
69323;SDS011;56470;47.350;8.718;2022-11-23T09:10:35;2.83;;;1.20;;
69323;SDS011;56470;47.350;8.718;2022-11-23T09:13:00;4.73;;;1.70;;
69323;SDS011;56470;47.350;8.718;2022-11-23T09:15:26;2.27;;;1.03;;
69323;SDS011;56470;47.350;8.718;2022-11-23T09:17:51;2.53;;;0.80;;
69323;SDS011;56470;47.350;8.718;2022-11-23T09:20:16;2.73;;;1.00;;
69323;SDS011;56470;47.350;8.718;2022-11-23T09:22:42;6.90;;;1.27;;
69323;SDS011;56470;47.350;8.718;2022-11-23T09:25:08;1.37;;;0.83;;
69323;SDS011;56470;47.350;8.718;2022-11-23T09:27:34;3.60;;;1.20;;
69323;SDS011;56470;47.350;8.718;2022-11-23T09:29:59;1.80;;;0.80;;
69323;SDS011;56470;47.350;8.718;2022-11-23T09:32:25;1.30;;;1.00;;
69323;SDS011;56470;47.350;8.718;2022-11-23T09:34:50;1.55;;;1.13;;
69323;SDS011;56470;47.350;8.718;2022-11-23T09:37:16;2.67;;;1.10;;
69323;SDS011;56470;47.350;8.718;2022-11-23T09:39:41;2.70;;;1.10;;
69323;SDS011;56470;47.350;8.718;2022-11-23T09:45:16;2.07;;;1.07;;
69323;SDS011;56470;47.350;8.718;2022-11-23T09:50:46;2.55;;;1.52;;
69323;SDS011;56470;47.350;8.718;2022-11-23T09:53:30;2.38;;;0.95;;
69323;SDS011;56470;47.350;8.718;2022-11-23T09:56:03;2.25;;;1.20;;
69323;SDS011;56470;47.350;8.718;2022-11-23T09:58:30;2.57;;;0.90;;
69323;SDS011;56470;47.350;8.718;2022-11-23T10:01:00;1.30;;;0.68;;
69323;SDS011;56470;47.350;8.718;2022-11-23T10:03:31;3.40;;;1.08;;
69323;SDS011;56470;47.350;8.718;2022-11-23T10:06:01;2.88;;;0.93;;
69323;SDS011;56470;47.350;8.718;2022-11-23T10:20:02;1.42;;;0.90;;
69323;SDS011;56470;47.350;8.718;2022-11-23T10:22:44;1.30;;;1.00;;
69323;SDS011;56470;47.350;8.718;2022-11-23T10:25:20;2.83;;;0.90;;
69323;SDS011;56470;47.350;8.718;2022-11-23T10:27:48;1.70;;;0.93;;
69323;SDS011;56470;47.350;8.718;2022-11-23T10:30:15;1.65;;;0.90;;
69323;SDS011;56470;47.350;8.718;2022-11-23T10:35:17;2.55;;;1.40;;
69323;SDS011;56470;47.350;8.718;2022-11-23T10:37:50;2.63;;;0.93;;
69323;SDS011;56470;47.350;8.718;2022-11-23T10:40:16;1.83;;;0.90;;
69323;SDS011;56470;47.350;8.718;2022-11-23T10:42:58;1.63;;;0.70;;
69323;SDS011;56470;47.350;8.718;2022-11-23T10:45:27;1.40;;;0.90;;
69323;SDS011;56470;47.350;8.718;2022-11-23T10:47:53;2.60;;;0.98;;
69323;SDS011;56470;47.350;8.718;2022-11-23T10:50:25;1.60;;;1.15;;
69323;SDS011;56470;47.350;8.718;2022-11-23T10:55:46;1.43;;;0.90;;
69323;SDS011;56470;47.350;8.718;2022-11-23T11:00:57;1.70;;;0.70;;
69323;SDS011;56470;47.350;8.718;2022-11-23T11:03:32;1.00;;;0.70;;
69323;SDS011;56470;47.350;8.718;2022-11-23T11:05:59;2.45;;;1.17;;
69323;SDS011;56470;47.350;8.718;2022-11-23T11:08:36;1.87;;;0.60;;
69323;SDS011;56470;47.350;8.718;2022-11-23T11:11:25;1.23;;;0.80;;
69323;SDS011;56470;47.350;8.718;2022-11-23T11:14:05;2.40;;;1.40;;
69323;SDS011;56470;47.350;8.718;2022-11-23T11:16:45;2.78;;;1.15;;
69323;SDS011;56470;47.350;8.718;2022-11-23T11:19:29;0.85;;;0.50;;
69323;SDS011;56470;47.350;8.718;2022-11-23T11:21:56;0.90;;;0.53;;
69323;SDS011;56470;47.350;8.718;2022-11-23T11:24:32;0.88;;;0.70;;
69323;SDS011;56470;47.350;8.718;2022-11-23T11:27:02;1.13;;;0.70;;
69323;SDS011;56470;47.350;8.718;2022-11-23T11:34:46;1.53;;;1.00;;
69323;SDS011;56470;47.350;8.718;2022-11-23T11:42:54;2.03;;;1.30;;
69323;SDS011;56470;47.350;8.718;2022-11-23T11:50:41;1.45;;;0.80;;
69323;SDS011;56470;47.350;8.718;2022-11-23T11:53:14;2.20;;;1.27;;
69323;SDS011;56470;47.350;8.718;2022-11-23T11:55:54;1.20;;;0.90;;
69323;SDS011;56470;47.350;8.718;2022-11-23T11:58:25;2.42;;;1.45;;
69323;SDS011;56470;47.350;8.718;2022-11-23T12:00:57;1.13;;;0.70;;
69323;SDS011;56470;47.350;8.718;2022-11-23T12:03:39;1.45;;;0.75;;
69323;SDS011;56470;47.350;8.718;2022-11-23T12:06:27;4.10;;;1.13;;
69323;SDS011;56470;47.350;8.718;2022-11-23T12:09:17;2.25;;;1.25;;
69323;SDS011;56470;47.350;8.718;2022-11-23T12:11:47;1.33;;;0.80;;
69323;SDS011;56470;47.350;8.718;2022-11-23T12:14:13;1.42;;;0.90;;
69323;SDS011;56470;47.350;8.718;2022-11-23T12:19:38;1.98;;;1.40;;
69323;SDS011;56470;47.350;8.718;2022-11-23T12:22:42;1.70;;;1.03;;
69323;SDS011;56470;47.350;8.718;2022-11-23T12:25:47;2.67;;;0.60;;
69323;SDS011;56470;47.350;8.718;2022-11-23T12:28:37;1.38;;;0.60;;
69323;SDS011;56470;47.350;8.718;2022-11-23T12:31:20;1.60;;;1.00;;
69323;SDS011;56470;47.350;8.718;2022-11-23T12:50:46;1.73;;;1.10;;
69323;SDS011;56470;47.350;8.718;2022-11-23T12:59:11;1.33;;;1.08;;
69323;SDS011;56470;47.350;8.718;2022-11-23T13:01:41;1.30;;;1.17;;
69323;SDS011;56470;47.350;8.718;2022-11-23T13:04:22;1.17;;;0.77;;
69323;SDS011;56470;47.350;8.718;2022-11-23T13:12:32;1.90;;;1.05;;
69323;SDS011;56470;47.350;8.718;2022-11-23T13:21:15;2.80;;;1.30;;
69323;SDS011;56470;47.350;8.718;2022-11-23T13:23:50;1.60;;;1.13;;
69323;SDS011;56470;47.350;8.718;2022-11-23T13:26:17;1.60;;;1.27;;
69323;SDS011;56470;47.350;8.718;2022-11-23T13:28:51;1.27;;;0.80;;
69323;SDS011;56470;47.350;8.718;2022-11-23T13:31:21;1.60;;;1.15;;
69323;SDS011;56470;47.350;8.718;2022-11-23T13:33:49;2.08;;;0.88;;
69323;SDS011;56470;47.350;8.718;2022-11-23T13:38:54;2.40;;;0.88;;
69323;SDS011;56470;47.350;8.718;2022-11-23T13:43:57;1.08;;;0.63;;
69323;SDS011;56470;47.350;8.718;2022-11-23T13:46:34;1.55;;;0.70;;
69323;SDS011;56470;47.350;8.718;2022-11-23T13:49:04;1.80;;;1.27;;
69323;SDS011;56470;47.350;8.718;2022-11-23T13:52:21;1.70;;;1.35;;
69323;SDS011;56470;47.350;8.718;2022-11-23T13:55:00;1.37;;;0.90;;
69323;SDS011;56470;47.350;8.718;2022-11-23T13:57:35;2.20;;;1.30;;
69323;SDS011;56470;47.350;8.718;2022-11-23T14:14:29;3.10;;;1.40;;
69323;SDS011;56470;47.350;8.718;2022-11-23T14:22:33;2.67;;;1.00;;
69323;SDS011;56470;47.350;8.718;2022-11-23T14:33:58;1.95;;;1.30;;
69323;SDS011;56470;47.350;8.718;2022-11-23T14:39:51;1.70;;;0.95;;
69323;SDS011;56470;47.350;8.718;2022-11-23T14:42:18;1.70;;;0.88;;
69323;SDS011;56470;47.350;8.718;2022-11-23T14:44:47;1.58;;;1.00;;
69323;SDS011;56470;47.350;8.718;2022-11-23T14:47:23;1.85;;;1.00;;
69323;SDS011;56470;47.350;8.718;2022-11-23T14:49:50;2.43;;;1.30;;
69323;SDS011;56470;47.350;8.718;2022-11-23T14:52:19;3.42;;;1.30;;
69323;SDS011;56470;47.350;8.718;2022-11-23T14:54:50;2.58;;;0.90;;
69323;SDS011;56470;47.350;8.718;2022-11-23T14:57:18;1.53;;;0.60;;
69323;SDS011;56470;47.350;8.718;2022-11-23T14:59:46;1.25;;;0.75;;
69323;SDS011;56470;47.350;8.718;2022-11-23T15:04:51;1.60;;;1.07;;
69323;SDS011;56470;47.350;8.718;2022-11-23T15:07:26;3.20;;;1.20;;
69323;SDS011;56470;47.350;8.718;2022-11-23T15:12:43;2.38;;;1.15;;
69323;SDS011;56470;47.350;8.718;2022-11-23T15:15:23;2.63;;;1.30;;
69323;SDS011;56470;47.350;8.718;2022-11-23T15:18:00;2.58;;;1.50;;
69323;SDS011;56470;47.350;8.718;2022-11-23T15:20:33;2.67;;;1.63;;
69323;SDS011;56470;47.350;8.718;2022-11-23T15:23:05;2.80;;;0.90;;
69323;SDS011;56470;47.350;8.718;2022-11-23T15:25:30;2.17;;;1.40;;
69323;SDS011;56470;47.350;8.718;2022-11-23T15:27:55;1.80;;;1.10;;
69323;SDS011;56470;47.350;8.718;2022-11-23T15:30:26;1.93;;;1.30;;
69323;SDS011;56470;47.350;8.718;2022-11-23T15:32:53;1.38;;;0.95;;
69323;SDS011;56470;47.350;8.718;2022-11-23T15:35:23;2.20;;;0.98;;
69323;SDS011;56470;47.350;8.718;2022-11-23T15:37:55;2.25;;;0.90;;
69323;SDS011;56470;47.350;8.718;2022-11-23T15:40:21;2.70;;;1.37;;
69323;SDS011;56470;47.350;8.718;2022-11-23T15:42:48;2.33;;;1.23;;
69323;SDS011;56470;47.350;8.718;2022-11-23T15:45:34;3.38;;;1.63;;
69323;SDS011;56470;47.350;8.718;2022-11-23T15:48:22;3.03;;;1.10;;
69323;SDS011;56470;47.350;8.718;2022-11-23T15:51:02;3.10;;;1.35;;
69323;SDS011;56470;47.350;8.718;2022-11-23T15:53:36;2.43;;;1.00;;
69323;SDS011;56470;47.350;8.718;2022-11-23T15:56:10;2.45;;;0.90;;
69323;SDS011;56470;47.350;8.718;2022-11-23T15:58:46;2.75;;;1.40;;
69323;SDS011;56470;47.350;8.718;2022-11-23T16:01:13;2.20;;;1.23;;
69323;SDS011;56470;47.350;8.718;2022-11-23T16:03:49;4.45;;;1.33;;
69323;SDS011;56470;47.350;8.718;2022-11-23T16:12:00;1.63;;;0.90;;
69323;SDS011;56470;47.350;8.718;2022-11-23T16:14:30;2.10;;;1.00;;
69323;SDS011;56470;47.350;8.718;2022-11-23T16:19:53;2.00;;;1.10;;
69323;SDS011;56470;47.350;8.718;2022-11-23T16:25:07;3.28;;;1.45;;
69323;SDS011;56470;47.350;8.718;2022-11-23T16:27:44;3.17;;;1.60;;
69323;SDS011;56470;47.350;8.718;2022-11-23T16:30:23;6.78;;;2.63;;
69323;SDS011;56470;47.350;8.718;2022-11-23T16:32:59;6.57;;;2.57;;
69323;SDS011;56470;47.350;8.718;2022-11-23T16:35:25;3.83;;;1.97;;
69323;SDS011;56470;47.350;8.718;2022-11-23T16:37:50;3.58;;;1.80;;
69323;SDS011;56470;47.350;8.718;2022-11-23T16:40:15;2.10;;;0.80;;
69323;SDS011;56470;47.350;8.718;2022-11-23T16:42:41;3.27;;;1.03;;
69323;SDS011;56470;47.350;8.718;2022-11-23T16:45:07;3.05;;;1.27;;
69323;SDS011;56470;47.350;8.718;2022-11-23T16:47:33;2.83;;;1.48;;
69323;SDS011;56470;47.350;8.718;2022-11-23T16:49:58;2.40;;;0.90;;
69323;SDS011;56470;47.350;8.718;2022-11-23T16:52:23;4.87;;;1.40;;
69323;SDS011;56470;47.350;8.718;2022-11-23T16:54:49;3.63;;;1.80;;
69323;SDS011;56470;47.350;8.718;2022-11-23T16:57:25;4.55;;;2.00;;
69323;SDS011;56470;47.350;8.718;2022-11-23T16:59:54;3.65;;;1.30;;
69323;SDS011;56470;47.350;8.718;2022-11-23T17:02:20;2.60;;;1.52;;
69323;SDS011;56470;47.350;8.718;2022-11-23T17:04:45;2.53;;;1.40;;
69323;SDS011;56470;47.350;8.718;2022-11-23T17:07:11;2.88;;;1.17;;
69323;SDS011;56470;47.350;8.718;2022-11-23T17:09:36;4.67;;;1.70;;
69323;SDS011;56470;47.350;8.718;2022-11-23T17:12:03;2.70;;;1.20;;
69323;SDS011;56470;47.350;8.718;2022-11-23T17:14:30;2.28;;;1.35;;